Time;durP1;ratioP1;P1;durP2;ratioP2;P2;SDS_P1;SDS_P2;PMS_P1;PMS_P2;Temp;Humidity;BMP_temperature;BMP_pressure;BME280_temperature;BME280_humidity;BME280_pressure;Samples;Min_cycle;Max_cycle;Signal;HPM_P1;HPM_P2
2024/01/28 00:01:59;;;;;;;18.75;12.10;;;2.10;99.90;;;;;;5029560;28;20149;-35
2024/01/28 00:04:25;;;;;;;16.88;12.60;;;2.00;99.90;;;;;;5002852;28;20060;-35
2024/01/28 00:06:51;;;;;;;19.52;12.73;;;2.00;99.90;;;;;;5028496;28;20057;-35
2024/01/28 00:09:16;;;;;;;16.02;11.75;;;2.00;99.90;;;;;;5029878;28;20047;-35
2024/01/28 00:11:43;;;;;;;18.42;12.98;;;2.10;99.90;;;;;;5029753;28;20469;-35
2024/01/28 00:14:09;;;;;;;21.75;12.25;;;2.10;99.90;;;;;;5022144;28;20710;-35
2024/01/28 00:16:35;;;;;;;17.73;11.43;;;2.10;99.90;;;;;;5005233;28;20053;-35
2024/01/28 00:19:00;;;;;;;17.40;11.95;;;2.20;99.90;;;;;;5025832;28;20135;-40
2024/01/28 00:21:26;;;;;;;14.93;10.18;;;2.10;99.90;;;;;;5020768;28;20060;-35
2024/01/28 00:23:52;;;;;;;18.10;11.55;;;2.20;99.90;;;;;;5030580;28;20546;-35
2024/01/28 00:26:20;;;;;;;12.57;10.50;;;2.10;99.90;;;;;;5023871;28;20136;-34
2024/01/28 00:28:46;;;;;;;17.17;11.40;;;2.10;99.90;;;;;;5021754;28;20157;-35
2024/01/28 00:31:12;;;;;;;19.35;12.68;;;2.10;99.90;;;;;;5024716;28;20136;-35
2024/01/28 00:33:38;;;;;;;16.13;11.35;;;2.10;99.90;;;;;;5003687;28;20067;-35
2024/01/28 00:36:04;;;;;;;19.13;12.52;;;2.10;99.90;;;;;;5021661;28;20132;-35
2024/01/28 00:38:31;;;;;;;14.57;11.40;;;2.10;99.90;;;;;;5023461;28;20048;-35
2024/01/28 00:40:58;;;;;;;19.45;11.63;;;2.10;99.90;;;;;;5026921;28;20057;-35
2024/01/28 00:43:24;;;;;;;17.08;11.32;;;2.10;99.90;;;;;;5022179;28;20063;-35
2024/01/28 00:45:50;;;;;;;15.85;10.77;;;2.10;99.90;;;;;;5026522;28;20060;-34
2024/01/28 00:48:15;;;;;;;18.85;11.68;;;2.10;99.90;;;;;;5033498;28;20084;-34
2024/01/28 00:50:41;;;;;;;15.15;11.80;;;2.00;99.90;;;;;;5025832;28;20508;-35
2024/01/28 00:53:07;;;;;;;19.55;14.63;;;2.00;99.90;;;;;;5025720;28;20144;-34
2024/01/28 00:55:33;;;;;;;17.90;13.95;;;2.00;99.90;;;;;;5025443;28;20498;-34
2024/01/28 00:58:02;;;;;;;19.17;13.93;;;2.00;99.90;;;;;;5030155;28;20054;-34
2024/01/28 01:00:28;;;;;;;17.65;15.10;;;2.00;99.90;;;;;;5025040;28;20495;-34
2024/01/28 01:02:54;;;;;;;23.40;14.43;;;2.00;99.90;;;;;;5022892;28;20522;-34
2024/01/28 01:05:20;;;;;;;17.25;13.25;;;2.00;99.90;;;;;;5025157;28;20053;-35
2024/01/28 01:07:45;;;;;;;18.92;13.43;;;2.00;99.90;;;;;;5026304;28;20064;-34
2024/01/28 01:10:11;;;;;;;19.60;14.15;;;2.00;99.90;;;;;;5026871;28;20077;-34
2024/01/28 01:12:37;;;;;;;17.70;13.98;;;1.90;99.90;;;;;;5029362;28;20057;-34
2024/01/28 01:15:03;;;;;;;20.38;16.13;;;1.90;99.90;;;;;;5025627;28;20053;-34
2024/01/28 01:17:29;;;;;;;19.55;15.95;;;1.90;99.90;;;;;;5025649;28;20073;-34
2024/01/28 01:19:55;;;;;;;17.00;14.05;;;1.90;99.90;;;;;;5027603;28;20132;-34
2024/01/28 01:22:21;;;;;;;21.17;13.38;;;1.90;99.90;;;;;;5026692;28;20316;-35
2024/01/28 01:24:46;;;;;;;18.10;16.15;;;1.90;99.90;;;;;;5024846;28;20060;-34
2024/01/28 01:27:13;;;;;;;20.42;15.23;;;1.80;99.90;;;;;;5029158;28;20113;-34
2024/01/28 01:29:38;;;;;;;20.83;15.63;;;1.80;99.90;;;;;;5025299;28;20049;-34
2024/01/28 01:32:04;;;;;;;16.13;13.32;;;1.90;99.90;;;;;;5027840;28;20050;-34
2024/01/28 01:34:30;;;;;;;16.33;13.70;;;1.80;99.90;;;;;;5025826;28;20132;-34
2024/01/28 01:36:56;;;;;;;16.92;15.25;;;1.80;99.90;;;;;;5021976;28;20045;-34
2024/01/28 01:39:22;;;;;;;18.52;16.65;;;1.80;99.90;;;;;;5028138;28;20652;-34
2024/01/28 01:41:47;;;;;;;21.95;15.50;;;1.90;99.90;;;;;;5026714;28;20064;-35
2024/01/28 01:44:13;;;;;;;22.98;20.30;;;1.80;99.90;;;;;;5028536;28;20504;-34
2024/01/28 01:46:42;;;;;;;19.67;17.75;;;1.80;99.90;;;;;;5028431;28;20054;-34
2024/01/28 01:49:09;;;;;;;18.92;16.33;;;1.80;99.90;;;;;;5028386;28;20423;-33
2024/01/28 01:51:35;;;;;;;19.80;17.80;;;1.80;99.90;;;;;;5034845;28;20558;-34
2024/01/28 01:54:02;;;;;;;19.77;17.88;;;1.80;99.90;;;;;;5025232;28;20144;-34
2024/01/28 01:56:30;;;;;;;22.02;19.35;;;1.80;99.90;;;;;;5022713;28;20046;-35
2024/01/28 01:58:57;;;;;;;20.60;17.98;;;1.80;99.90;;;;;;5026378;28;20506;-34
2024/01/28 02:01:25;;;;;;;21.85;18.23;;;1.80;99.90;;;;;;5025889;28;20132;-34
2024/01/28 02:03:54;;;;;;;19.88;17.98;;;1.90;99.90;;;;;;5036462;28;20049;-34
2024/01/28 02:06:20;;;;;;;18.52;16.50;;;1.80;99.90;;;;;;5026829;28;20057;-34
2024/01/28 02:08:46;;;;;;;20.08;17.45;;;1.80;99.90;;;;;;5027337;28;20419;-34
2024/01/28 02:11:12;;;;;;;22.73;18.25;;;1.90;99.90;;;;;;5030347;28;20059;-34
2024/01/28 02:13:38;;;;;;;20.73;18.73;;;1.90;99.90;;;;;;5013038;28;20401;-34
2024/01/28 02:16:04;;;;;;;20.77;17.92;;;1.90;99.90;;;;;;5029283;28;20045;-34
2024/01/28 02:18:30;;;;;;;19.48;16.67;;;1.90;99.90;;;;;;5025964;28;20053;-34
2024/01/28 02:20:55;;;;;;;16.95;15.07;;;1.80;99.90;;;;;;5038158;28;21700;-34
2024/01/28 02:23:21;;;;;;;18.73;16.67;;;1.90;99.90;;;;;;5028138;28;20061;-35
2024/01/28 02:25:49;;;;;;;20.23;18.15;;;1.90;99.90;;;;;;5032990;28;20068;-34
2024/01/28 02:28:15;;;;;;;19.60;17.60;;;1.90;99.90;;;;;;5037231;28;20048;-34
2024/01/28 02:30:41;;;;;;;18.63;16.65;;;1.90;99.90;;;;;;5034652;28;20586;-33
2024/01/28 02:33:07;;;;;;;19.05;16.10;;;1.90;99.90;;;;;;5032612;28;20052;-34
2024/01/28 02:35:32;;;;;;;19.92;17.27;;;1.90;99.90;;;;;;5035075;28;20053;-34
2024/01/28 02:37:58;;;;;;;20.48;18.48;;;1.90;99.90;;;;;;5031939;28;20145;-34
2024/01/28 02:40:23;;;;;;;19.48;17.55;;;1.90;99.90;;;;;;5041261;28;20045;-34
2024/01/28 02:42:49;;;;;;;25.02;22.45;;;1.90;99.90;;;;;;5041833;28;20049;-34
2024/01/28 02:45:15;;;;;;;23.30;20.88;;;1.90;99.90;;;;;;5036999;28;20061;-36
2024/01/28 02:47:41;;;;;;;22.67;18.98;;;1.90;99.90;;;;;;5038364;28;20059;-34
2024/01/28 02:50:07;;;;;;;19.02;17.17;;;1.90;99.90;;;;;;5030706;28;20061;-34
2024/01/28 02:52:33;;;;;;;20.15;17.98;;;1.90;99.90;;;;;;5038014;28;20513;-35
2024/01/28 02:54:58;;;;;;;18.60;15.27;;;1.90;99.90;;;;;;5029803;28;20041;-35
2024/01/28 02:57:24;;;;;;;21.00;18.90;;;1.90;99.90;;;;;;5036721;28;20052;-34
2024/01/28 02:59:50;;;;;;;20.30;18.15;;;1.90;99.90;;;;;;5032049;28;20509;-34
2024/01/28 03:02:17;;;;;;;19.08;17.05;;;1.90;99.90;;;;;;5033831;28;20140;-35
2024/01/28 03:04:43;;;;;;;23.58;18.95;;;1.90;99.90;;;;;;5031596;28;20041;-34
2024/01/28 03:07:09;;;;;;;19.50;17.67;;;1.90;99.90;;;;;;5025313;28;20057;-34
2024/01/28 03:09:34;;;;;;;21.27;17.98;;;1.90;99.90;;;;;;5027464;28;20403;-34
2024/01/28 03:12:00;;;;;;;23.70;18.23;;;1.90;99.90;;;;;;5030864;28;20047;-34
2024/01/28 03:14:26;;;;;;;21.98;18.67;;;1.90;99.90;;;;;;5030327;28;20116;-35
2024/01/28 03:16:52;;;;;;;19.08;17.40;;;1.90;99.90;;;;;;5028339;28;20048;-35
2024/01/28 03:19:18;;;;;;;23.10;20.75;;;1.90;99.90;;;;;;5024954;28;20045;-34
2024/01/28 03:21:44;;;;;;;21.45;16.67;;;1.90;99.90;;;;;;5031581;28;20054;-34
2024/01/28 03:24:10;;;;;;;21.88;19.88;;;1.90;99.90;;;;;;5011920;28;20128;-34
2024/01/28 03:26:35;;;;;;;19.95;17.52;;;1.90;99.90;;;;;;5031060;28;20144;-34
2024/01/28 03:29:02;;;;;;;20.65;16.70;;;1.90;99.90;;;;;;5033440;28;20053;-34
2024/01/28 03:31:28;;;;;;;20.98;18.83;;;1.90;99.90;;;;;;5030331;28;20576;-35
2024/01/28 03:33:54;;;;;;;23.90;18.15;;;1.90;99.90;;;;;;5028719;28;20668;-35
2024/01/28 03:36:20;;;;;;;22.38;20.05;;;1.90;99.90;;;;;;5024969;28;20519;-34
2024/01/28 03:38:45;;;;;;;18.85;16.55;;;1.90;99.90;;;;;;5029748;28;20060;-35
2024/01/28 03:41:13;;;;;;;20.30;17.67;;;1.90;99.90;;;;;;5023044;28;20049;-34
2024/01/28 03:43:39;;;;;;;18.50;16.60;;;1.90;99.90;;;;;;5035372;28;20068;-34
2024/01/28 03:46:07;;;;;;;17.27;15.50;;;1.90;99.90;;;;;;5027433;28;20075;-34
2024/01/28 03:48:33;;;;;;;20.13;16.52;;;1.90;99.90;;;;;;5030878;28;20049;-34
2024/01/28 03:50:58;;;;;;;23.13;17.45;;;1.90;99.90;;;;;;5031263;28;20422;-34
2024/01/28 03:53:24;;;;;;;18.70;16.05;;;1.90;99.90;;;;;;5029052;28;20481;-34
2024/01/28 03:55:50;;;;;;;18.83;15.23;;;1.90;99.90;;;;;;5030410;28;20129;-34
2024/01/28 03:58:16;;;;;;;19.52;15.48;;;1.90;99.90;;;;;;5028211;28;20080;-34
2024/01/28 04:00:41;;;;;;;18.60;16.75;;;1.90;99.90;;;;;;5032062;28;20057;-34
2024/01/28 04:03:08;;;;;;;18.30;16.45;;;1.90;99.90;;;;;;5029734;28;20049;-33
2024/01/28 04:05:34;;;;;;;20.63;17.33;;;1.90;99.90;;;;;;5024566;28;20795;-35
2024/01/28 04:08:01;;;;;;;18.00;16.13;;;1.80;99.90;;;;;;5027231;28;20190;-34
2024/01/28 04:10:27;;;;;;;17.90;16.00;;;1.80;99.90;;;;;;5026376;28;20111;-34
2024/01/28 04:12:53;;;;;;;21.70;17.88;;;1.80;99.90;;;;;;5034812;28;20049;-34
2024/01/28 04:15:18;;;;;;;16.98;14.55;;;1.70;99.90;;;;;;5015872;28;20123;-34
2024/01/28 04:17:44;;;;;;;18.23;14.93;;;1.70;99.90;;;;;;5032047;28;20494;-34
2024/01/28 04:20:10;;;;;;;18.08;16.20;;;1.70;99.90;;;;;;5026783;28;20057;-34
2024/01/28 04:22:36;;;;;;;18.15;16.00;;;1.70;99.90;;;;;;5008458;28;20061;-34
2024/01/28 04:25:02;;;;;;;21.80;16.83;;;1.60;99.90;;;;;;5026328;28;20422;-34
2024/01/28 04:27:27;;;;;;;19.45;17.45;;;1.60;99.90;;;;;;5027393;28;20057;-34
2024/01/28 04:29:53;;;;;;;21.00;18.80;;;1.60;99.90;;;;;;5024807;28;20051;-34
2024/01/28 04:32:19;;;;;;;18.00;16.00;;;1.60;99.90;;;;;;5025003;28;20099;-34
2024/01/28 04:34:44;;;;;;;20.67;16.08;;;1.60;99.90;;;;;;5024621;28;20396;-35
2024/01/28 04:37:10;;;;;;;17.70;16.05;;;1.50;99.90;;;;;;5024487;28;20508;-37
2024/01/28 04:39:36;;;;;;;20.27;17.77;;;1.50;99.90;;;;;;5024981;28;20356;-35
2024/01/28 04:42:02;;;;;;;18.15;16.10;;;1.50;99.90;;;;;;5026090;28;20068;-35
2024/01/28 04:44:28;;;;;;;18.67;17.02;;;1.50;99.90;;;;;;5029552;28;20048;-35
2024/01/28 04:46:56;;;;;;;17.90;15.85;;;1.40;99.90;;;;;;5023596;28;20418;-35
2024/01/28 04:49:25;;;;;;;20.00;17.75;;;1.40;99.90;;;;;;5026037;28;20052;-35
2024/01/28 04:51:51;;;;;;;17.67;15.85;;;1.40;99.90;;;;;;5021296;28;20057;-34
2024/01/28 04:54:17;;;;;;;19.88;17.60;;;1.40;99.90;;;;;;5027013;28;20084;-35
2024/01/28 04:56:44;;;;;;;20.77;18.77;;;1.40;99.90;;;;;;5010887;28;20136;-35
2024/01/28 04:59:10;;;;;;;18.98;16.88;;;1.40;99.90;;;;;;5024103;28;20468;-34
2024/01/28 05:01:36;;;;;;;20.60;18.60;;;1.40;99.90;;;;;;5031994;28;20106;-35
2024/01/28 05:04:01;;;;;;;19.95;17.80;;;1.40;99.90;;;;;;5025585;28;20494;-35
2024/01/28 05:06:34;;;;;;;19.02;17.02;;;1.30;99.90;;;;;;5028841;28;20396;-35
2024/01/28 05:09:03;;;;;;;22.10;19.95;;;1.30;99.90;;;;;;5027251;28;20057;-34
2024/01/28 05:11:32;;;;;;;22.85;16.85;;;1.30;99.90;;;;;;5022488;28;20499;-34
2024/01/28 05:13:59;;;;;;;20.20;17.50;;;1.30;99.90;;;;;;5025364;28;20061;-34
2024/01/28 05:16:25;;;;;;;20.17;18.17;;;1.20;99.90;;;;;;5023243;28;20045;-34
2024/01/28 05:18:51;;;;;;;19.38;17.70;;;1.20;99.90;;;;;;5026742;28;20053;-34
2024/01/28 05:21:22;;;;;;;21.13;19.08;;;1.20;99.90;;;;;;5028891;28;20040;-34
2024/01/28 05:23:50;;;;;;;20.73;18.80;;;1.20;99.90;;;;;;5029792;28;20108;-34
2024/01/28 05:26:17;;;;;;;22.05;19.27;;;1.10;99.90;;;;;;5024463;28;20530;-37
2024/01/28 05:28:42;;;;;;;21.88;19.77;;;1.10;99.90;;;;;;5034670;28;20063;-34
2024/01/28 05:31:09;;;;;;;23.30;21.45;;;1.10;99.90;;;;;;5028868;28;20430;-35
2024/01/28 05:33:37;;;;;;;21.48;17.92;;;1.10;99.90;;;;;;5032132;28;20399;-35
2024/01/28 05:36:13;;;;;;;21.08;19.02;;;1.10;99.90;;;;;;5024481;28;20041;-34
2024/01/28 05:38:39;;;;;;;24.40;21.85;;;1.10;99.90;;;;;;5031781;28;20052;-34
2024/01/28 05:41:08;;;;;;;22.30;19.92;;;1.20;99.90;;;;;;5031078;28;20040;-34
2024/01/28 05:43:34;;;;;;;23.42;20.48;;;1.20;99.90;;;;;;5030773;28;20486;-34
2024/01/28 05:46:01;;;;;;;22.65;20.33;;;1.20;99.90;;;;;;5034677;28;20146;-35
2024/01/28 05:48:27;;;;;;;19.42;17.50;;;1.10;99.90;;;;;;5028026;28;20072;-34
2024/01/28 05:50:52;;;;;;;20.58;18.60;;;1.10;99.90;;;;;;5033596;28;20053;-34
2024/01/28 05:53:18;;;;;;;21.80;19.65;;;1.10;99.90;;;;;;5008533;28;20430;-34
2024/01/28 05:55:44;;;;;;;21.42;19.27;;;1.10;99.90;;;;;;5030388;28;20107;-35
2024/01/28 05:58:10;;;;;;;22.13;19.98;;;1.10;99.90;;;;;;5024566;28;20049;-34
2024/01/28 06:00:35;;;;;;;22.48;20.00;;;1.10;99.90;;;;;;5028688;28;20069;-34
2024/01/28 06:03:03;;;;;;;21.58;19.27;;;1.10;99.90;;;;;;5026591;28;20690;-35
2024/01/28 06:05:29;;;;;;;23.10;21.00;;;1.00;99.90;;;;;;5027503;28;20063;-35
2024/01/28 06:07:55;;;;;;;22.05;20.13;;;1.00;99.90;;;;;;5026749;28;20057;-35
2024/01/28 06:10:20;;;;;;;22.92;20.48;;;1.00;99.90;;;;;;5030267;28;20173;-35
2024/01/28 06:12:46;;;;;;;23.98;21.98;;;1.00;99.90;;;;;;5031908;28;20050;-35
2024/01/28 06:15:12;;;;;;;23.30;20.80;;;0.90;99.90;;;;;;5024707;28;20087;-35
2024/01/28 06:17:38;;;;;;;22.95;20.83;;;0.90;99.90;;;;;;5029266;28;20041;-35
2024/01/28 06:20:05;;;;;;;22.13;20.23;;;0.80;99.90;;;;;;5028398;28;20502;-35
2024/01/28 06:22:31;;;;;;;22.13;20.05;;;0.80;99.90;;;;;;5028028;28;20510;-34
2024/01/28 06:25:01;;;;;;;23.88;21.70;;;0.80;99.90;;;;;;5026355;28;20057;-35
2024/01/28 06:27:27;;;;;;;21.23;19.30;;;0.80;99.90;;;;;;5027410;28;20061;-35
2024/01/28 06:29:54;;;;;;;22.52;20.45;;;0.80;99.90;;;;;;5032807;28;20043;-35
2024/01/28 06:32:21;;;;;;;21.90;19.77;;;0.80;99.90;;;;;;5029951;28;20049;-35
2024/01/28 06:34:48;;;;;;;21.02;19.00;;;0.80;99.90;;;;;;5029492;28;20480;-35
2024/01/28 06:37:13;;;;;;;19.33;17.35;;;0.80;99.90;;;;;;5025242;28;20047;-35
2024/01/28 06:39:39;;;;;;;21.98;19.23;;;0.80;99.90;;;;;;5029064;28;20352;-35
2024/01/28 06:42:05;;;;;;;19.13;17.52;;;0.80;99.90;;;;;;5028935;28;20509;-35
2024/01/28 06:44:34;;;;;;;20.90;16.58;;;0.70;99.90;;;;;;5037595;28;20112;-35
2024/01/28 06:47:02;;;;;;;18.83;17.13;;;0.70;99.90;;;;;;5032336;28;20517;-35
2024/01/28 06:49:27;;;;;;;19.45;17.50;;;0.60;99.90;;;;;;5033189;28;20068;-35
2024/01/28 06:51:53;;;;;;;18.55;16.83;;;0.60;99.90;;;;;;5029665;28;20056;-35
2024/01/28 06:54:19;;;;;;;18.90;16.98;;;0.60;99.90;;;;;;5032155;28;20052;-35
2024/01/28 06:56:45;;;;;;;21.63;17.73;;;0.60;99.90;;;;;;5034714;28;20080;-35
2024/01/28 06:59:11;;;;;;;19.30;17.48;;;0.60;99.90;;;;;;5027809;28;20094;-35
2024/01/28 07:01:37;;;;;;;19.95;17.58;;;0.60;99.90;;;;;;5031906;28;20049;-35
2024/01/28 07:04:02;;;;;;;20.75;17.10;;;0.60;99.90;;;;;;5035857;28;20178;-35
2024/01/28 07:06:28;;;;;;;19.10;17.17;;;0.60;99.90;;;;;;5030413;28;20068;-35
2024/01/28 07:08:54;;;;;;;18.13;16.25;;;0.60;99.90;;;;;;5031182;28;20613;-35
2024/01/28 07:11:19;;;;;;;18.63;17.02;;;0.60;99.90;;;;;;5028131;28;20044;-35
2024/01/28 07:13:45;;;;;;;17.58;15.35;;;0.60;99.90;;;;;;5026999;28;20142;-34
2024/01/28 07:16:12;;;;;;;18.20;16.38;;;0.60;99.90;;;;;;5024972;28;20052;-42
2024/01/28 07:18:39;;;;;;;17.50;15.70;;;0.60;99.90;;;;;;5031663;28;20062;-35
2024/01/28 07:21:05;;;;;;;22.23;16.02;;;0.50;99.90;;;;;;5031417;28;20056;-34
2024/01/28 07:23:31;;;;;;;19.63;15.82;;;0.60;99.90;;;;;;5027085;28;20061;-34
2024/01/28 07:25:57;;;;;;;15.70;14.30;;;0.60;99.90;;;;;;5029871;28;20575;-34
2024/01/28 07:28:23;;;;;;;16.92;15.32;;;0.60;99.90;;;;;;5028965;28;20218;-34
2024/01/28 07:30:48;;;;;;;16.50;14.93;;;0.60;99.90;;;;;;5031175;28;20419;-36
2024/01/28 07:33:15;;;;;;;19.38;17.30;;;0.60;99.90;;;;;;5033518;28;20395;-36
2024/01/28 07:35:41;;;;;;;16.92;15.18;;;0.60;99.90;;;;;;5011856;28;20137;-35
2024/01/28 07:38:09;;;;;;;19.65;16.92;;;0.70;99.90;;;;;;5032961;28;20045;-35
2024/01/28 07:40:35;;;;;;;17.65;15.73;;;0.70;99.90;;;;;;5021889;28;20510;-36
2024/01/28 07:43:00;;;;;;;17.05;15.35;;;0.70;99.90;;;;;;5003052;28;20045;-35
2024/01/28 07:45:26;;;;;;;17.40;15.70;;;0.60;99.90;;;;;;5026403;28;20424;-35
2024/01/28 07:47:52;;;;;;;17.38;15.68;;;0.70;99.90;;;;;;5027460;28;20053;-34
2024/01/28 07:50:18;;;;;;;17.20;15.43;;;0.70;99.90;;;;;;5025351;28;20426;-35
2024/01/28 07:52:44;;;;;;;19.33;17.15;;;0.70;99.90;;;;;;5028632;28;20049;-33
2024/01/28 07:55:12;;;;;;;16.80;15.27;;;0.70;99.90;;;;;;5027884;28;20450;-34
2024/01/28 07:57:38;;;;;;;18.52;16.83;;;0.80;99.90;;;;;;5020822;28;20049;-33
2024/01/28 08:00:05;;;;;;;17.05;15.38;;;0.80;99.90;;;;;;5023728;28;20071;-34
2024/01/28 08:02:31;;;;;;;18.42;15.48;;;0.80;99.90;;;;;;5030475;28;21234;-34
2024/01/28 08:04:57;;;;;;;16.80;15.13;;;0.80;99.90;;;;;;5026984;28;20479;-34
2024/01/28 08:07:22;;;;;;;18.08;16.27;;;0.80;99.90;;;;;;5027945;28;20045;-34
2024/01/28 08:09:48;;;;;;;17.05;15.38;;;0.80;99.90;;;;;;5029907;28;20068;-34
2024/01/28 08:12:14;;;;;;;18.98;17.05;;;0.90;99.90;;;;;;5011419;28;20052;-34
2024/01/28 08:14:39;;;;;;;19.63;16.13;;;0.90;99.90;;;;;;5026751;28;20111;-34
2024/01/28 08:17:05;;;;;;;18.85;16.88;;;1.00;99.90;;;;;;5025785;28;20056;-34
2024/01/28 08:19:31;;;;;;;18.38;16.73;;;1.00;99.90;;;;;;5036828;28;20064;-34
2024/01/28 08:21:58;;;;;;;17.13;15.45;;;1.00;99.90;;;;;;5027956;28;20049;-33
2024/01/28 08:24:24;;;;;;;21.30;17.52;;;1.10;99.90;;;;;;5025535;28;20116;-34
2024/01/28 08:26:50;;;;;;;19.00;17.38;;;1.10;99.90;;;;;;5033885;28;20053;-34
2024/01/28 08:29:16;;;;;;;21.70;20.00;;;1.20;99.90;;;;;;5026550;28;20481;-34
2024/01/28 08:31:42;;;;;;;19.83;18.00;;;1.20;99.90;;;;;;5032232;28;20053;-35
2024/01/28 08:34:07;;;;;;;19.63;17.85;;;1.30;99.90;;;;;;5029406;28;20056;-35
2024/01/28 08:36:33;;;;;;;20.30;18.60;;;1.30;99.90;;;;;;5021816;28;20058;-34
2024/01/28 08:38:59;;;;;;;22.73;20.75;;;1.30;99.90;;;;;;5026085;28;20430;-34
2024/01/28 08:41:24;;;;;;;22.23;20.38;;;1.40;99.90;;;;;;5025019;28;20056;-34
2024/01/28 08:43:50;;;;;;;21.38;19.35;;;1.50;99.90;;;;;;5026003;28;20466;-34
2024/01/28 08:46:16;;;;;;;26.35;23.88;;;1.50;99.90;;;;;;5027574;28;20041;-34
2024/01/28 08:48:42;;;;;;;27.92;25.63;;;1.60;99.90;;;;;;5024727;28;20065;-34
2024/01/28 08:51:09;;;;;;;25.73;23.70;;;1.60;99.90;;;;;;5021240;28;20049;-35
2024/01/28 08:53:35;;;;;;;30.42;27.67;;;1.70;99.90;;;;;;5023067;28;20045;-35
2024/01/28 08:56:00;;;;;;;24.67;22.63;;;1.80;99.90;;;;;;5025232;28;20213;-35
2024/01/28 08:58:26;;;;;;;20.48;18.95;;;1.80;99.90;;;;;;5025479;28;20064;-35
2024/01/28 09:00:52;;;;;;;23.40;21.40;;;1.90;99.90;;;;;;5024722;28;20079;-36
2024/01/28 09:03:17;;;;;;;20.02;18.15;;;1.90;99.90;;;;;;5023675;28;20414;-35
2024/01/28 09:05:43;;;;;;;22.00;20.00;;;2.00;99.90;;;;;;5024172;28;20068;-35
2024/01/28 09:08:09;;;;;;;27.15;24.52;;;2.10;99.90;;;;;;5029435;28;20049;-35
2024/01/28 09:10:34;;;;;;;22.27;20.08;;;2.20;99.90;;;;;;5024623;28;20053;-34
2024/01/28 09:13:00;;;;;;;22.67;20.33;;;2.20;99.90;;;;;;5023065;28;20232;-35
2024/01/28 09:15:26;;;;;;;23.95;21.67;;;2.30;99.90;;;;;;5022828;28;20053;-34
2024/01/28 09:17:52;;;;;;;23.52;20.50;;;2.40;99.90;;;;;;5028624;28;20136;-34
2024/01/28 09:20:17;;;;;;;36.08;32.83;;;2.40;99.90;;;;;;5024031;28;20043;-34
2024/01/28 09:22:43;;;;;;;31.55;28.33;;;2.50;99.90;;;;;;5024977;28;20049;-34
2024/01/28 09:25:09;;;;;;;34.40;31.00;;;2.60;99.90;;;;;;5008153;28;20390;-34
2024/01/28 09:27:35;;;;;;;19.85;17.95;;;2.60;99.90;;;;;;5026594;28;20505;-34
2024/01/28 09:30:01;;;;;;;11.13;9.57;;;2.70;99.90;;;;;;5023286;28;20056;-34
2024/01/28 09:32:27;;;;;;;16.77;13.02;;;2.70;99.90;;;;;;5021428;28;20450;-34
2024/01/28 09:34:53;;;;;;;13.07;11.77;;;2.70;99.90;;;;;;5021024;28;20042;-34
2024/01/28 09:37:18;;;;;;;12.00;7.10;;;2.80;99.90;;;;;;5021489;28;20093;-35
2024/01/28 09:39:45;;;;;;;10.23;7.22;;;2.90;99.90;;;;;;5019913;28;20124;-34
2024/01/28 09:42:21;;;;;;;11.80;6.60;;;2.90;99.90;;;;;;5007932;28;20178;-34
2024/01/28 09:44:49;;;;;;;10.13;6.10;;;3.00;99.90;;;;;;5019145;28;20074;-33
2024/01/28 09:47:19;;;;;;;9.00;5.50;;;3.10;99.90;;;;;;5023626;28;20050;-33
2024/01/28 09:49:46;;;;;;;8.77;5.38;;;3.20;99.90;;;;;;5020034;28;20065;-34
2024/01/28 09:52:13;;;;;;;9.85;4.57;;;3.20;99.90;;;;;;5022563;28;20056;-34
2024/01/28 09:54:41;;;;;;;10.15;4.80;;;3.30;99.90;;;;;;5022027;28;20072;-34
2024/01/28 09:57:08;;;;;;;6.88;4.32;;;3.40;99.90;;;;;;5024075;28;20047;-34
2024/01/28 09:59:35;;;;;;;10.55;4.35;;;3.50;99.90;;;;;;5018346;28;20045;-34
2024/01/28 10:02:03;;;;;;;7.72;4.07;;;3.50;99.90;;;;;;5018522;28;20407;-34
2024/01/28 10:04:30;;;;;;;8.60;3.30;;;3.60;99.90;;;;;;5023629;28;20053;-34
2024/01/28 10:07:02;;;;;;;7.35;3.33;;;3.80;99.90;;;;;;5025604;28;20665;-36
2024/01/28 10:09:29;;;;;;;8.18;3.40;;;3.80;99.90;;;;;;5024901;28;20064;-34
2024/01/28 10:11:59;;;;;;;8.73;3.55;;;3.90;99.90;;;;;;5025463;28;20089;-36
2024/01/28 10:14:25;;;;;;;8.18;3.10;;;4.00;99.90;;;;;;5023358;28;20049;-34
2024/01/28 10:16:51;;;;;;;7.68;2.78;;;4.10;99.90;;;;;;5023212;28;20057;-36
2024/01/28 10:19:16;;;;;;;8.68;3.70;;;4.20;99.90;;;;;;5022836;28;20121;-36
2024/01/28 10:21:45;;;;;;;7.55;3.00;;;4.20;99.90;;;;;;5018129;28;20107;-35
2024/01/28 10:24:12;;;;;;;6.78;3.30;;;4.30;99.90;;;;;;5028624;28;20140;-36
2024/01/28 10:26:38;;;;;;;7.68;3.10;;;4.40;99.90;;;;;;5030500;28;20065;-37
2024/01/28 10:29:06;;;;;;;8.38;2.92;;;4.40;99.90;;;;;;5025637;28;20545;-35
2024/01/28 10:31:32;;;;;;;8.23;3.17;;;4.50;99.90;;;;;;5019353;28;20060;-35
2024/01/28 10:33:58;;;;;;;6.32;2.92;;;4.60;99.90;;;;;;5021950;28;20510;-35
2024/01/28 10:36:25;;;;;;;10.70;2.65;;;4.70;99.90;;;;;;5021945;28;20049;-34
2024/01/28 10:38:52;;;;;;;6.18;3.20;;;4.80;99.90;;;;;;5024927;28;20064;-36
2024/01/28 10:41:18;;;;;;;7.10;2.80;;;4.90;99.90;;;;;;5022093;28;20184;-35
2024/01/28 10:43:55;;;;;;;6.68;2.83;;;5.00;99.90;;;;;;5018743;28;20051;-35
2024/01/28 10:46:31;;;;;;;6.13;2.40;;;5.10;99.90;;;;;;5023711;28;20445;-36
2024/01/28 10:49:03;;;;;;;7.60;2.60;;;5.20;99.90;;;;;;5016289;28;20053;-34
2024/01/28 10:51:30;;;;;;;;;;;5.30;99.90;;;;;;5025087;28;20168;-35
2024/01/28 10:53:57;;;;;;;5.78;2.03;;;5.30;99.90;;;;;;5017653;28;20345;-35
2024/01/28 10:56:23;;;;;;;5.82;2.50;;;5.40;99.90;;;;;;5019856;28;20418;-36
2024/01/28 10:58:50;;;;;;;6.53;2.35;;;5.40;99.90;;;;;;5020154;28;20057;-34
2024/01/28 11:01:17;;;;;;;6.90;2.70;;;5.40;99.90;;;;;;5021737;28;20490;-34
2024/01/28 11:03:43;;;;;;;4.93;2.10;;;5.40;99.90;;;;;;5019759;28;20109;-34
2024/01/28 11:06:09;;;;;;;8.55;2.40;;;5.40;99.90;;;;;;5014315;28;20659;-35
2024/01/28 11:08:35;;;;;;;7.32;2.10;;;5.50;99.90;;;;;;5023508;28;20061;-36
2024/01/28 11:11:01;;;;;;;8.27;2.20;;;5.50;99.90;;;;;;5020635;28;21028;-35
2024/01/28 11:13:27;;;;;;;7.85;2.92;;;5.60;99.90;;;;;;5017034;28;20604;-35
2024/01/28 11:15:56;;;;;;;5.93;2.50;;;5.70;99.90;;;;;;5021733;28;20058;-35
2024/01/28 11:18:31;;;;;;;5.32;2.13;;;5.80;99.90;;;;;;5023458;28;20038;-35
2024/01/28 11:20:56;;;;;;;5.18;2.20;;;6.00;99.90;;;;;;5022205;28;20068;-35
2024/01/28 11:23:22;;;;;;;9.07;2.55;;;6.10;99.90;;;;;;5018788;28;20057;-36
2024/01/28 11:25:52;;;;;;;4.22;1.98;;;6.20;99.90;;;;;;5023516;28;20487;-35
2024/01/28 11:28:18;;;;;;;4.88;2.22;;;6.30;99.90;;;;;;5025427;28;20056;-35
2024/01/28 11:30:46;;;;;;;5.15;2.50;;;6.40;99.90;;;;;;5024332;28;20513;-35
2024/01/28 11:33:14;;;;;;;4.35;1.83;;;6.60;99.90;;;;;;5023337;28;20053;-34
2024/01/28 11:35:44;;;;;;;6.00;1.83;;;6.70;99.90;;;;;;5023005;28;20045;-36
2024/01/28 11:38:18;;;;;;;4.55;2.25;;;6.80;99.90;;;;;;5021454;28;20422;-34
2024/01/28 11:40:48;;;;;;;5.50;1.73;;;6.90;99.90;;;;;;5022779;28;20057;-35
2024/01/28 11:43:13;;;;;;;4.45;1.73;;;7.10;99.90;;;;;;5019893;28;20138;-35
2024/01/28 11:45:39;;;;;;;6.47;2.40;;;7.20;99.90;;;;;;5028426;28;20120;-35
2024/01/28 11:48:07;;;;;;;4.65;1.80;;;7.30;99.90;;;;;;5031124;28;20062;-35
2024/01/28 11:50:33;;;;;;;4.00;2.00;;;7.40;99.90;;;;;;5030769;28;20080;-36
2024/01/28 11:52:58;;;;;;;7.95;2.13;;;7.60;99.90;;;;;;5024637;28;20192;-35
2024/01/28 11:55:24;;;;;;;6.35;2.25;;;7.70;99.90;;;;;;5019995;28;20053;-35
2024/01/28 11:57:50;;;;;;;5.22;1.80;;;7.90;99.90;;;;;;5026583;28;20129;-36
2024/01/28 12:00:16;;;;;;;7.38;1.98;;;8.10;99.90;;;;;;5023485;28;20430;-35
2024/01/28 12:02:43;;;;;;;4.60;1.90;;;8.40;99.90;;;;;;5025310;28;20049;-35
2024/01/28 12:05:10;;;;;;;4.75;1.77;;;8.60;99.90;;;;;;5021251;28;20049;-35
2024/01/28 12:07:39;;;;;;;4.88;1.95;;;8.80;99.90;;;;;;5027554;28;20056;-36
2024/01/28 12:10:12;;;;;;;7.50;1.98;;;9.00;99.90;;;;;;5021383;28;21710;-36
2024/01/28 12:12:40;;;;;;;4.68;1.73;;;9.20;99.90;;;;;;5027737;28;20536;-36
2024/01/28 12:15:07;;;;;;;6.60;1.80;;;9.50;99.90;;;;;;5022982;28;20053;-36
2024/01/28 12:17:37;;;;;;;5.28;1.88;;;9.60;99.90;;;;;;5025709;28;20071;-36
2024/01/28 12:20:05;;;;;;;3.67;1.40;;;9.70;99.90;;;;;;5019558;28;20053;-36
2024/01/28 12:22:38;;;;;;;4.30;1.40;;;9.90;99.90;;;;;;5028111;28;20415;-36
2024/01/28 12:25:11;;;;;;;3.80;1.58;;;10.10;99.90;;;;;;5018063;28;20050;-34
2024/01/28 12:27:38;;;;;;;4.10;1.60;;;10.30;99.90;;;;;;5031721;28;20060;-35
2024/01/28 12:30:07;;;;;;;3.53;1.73;;;10.50;99.90;;;;;;5026666;28;20515;-35
2024/01/28 12:32:32;;;;;;;7.63;1.95;;;10.70;99.90;;;;;;5030176;28;20052;-36
2024/01/28 12:35:03;;;;;;;7.22;1.90;;;10.90;99.90;;;;;;5029401;28;20061;-37
2024/01/28 12:37:30;;;;;;;4.95;1.65;;;11.20;99.90;;;;;;5027374;28;20508;-36